createdAt,value
2019-04-23T00:01:14.724Z,99875.27
2019-04-23T00:03:38.978Z,99870.09
2019-04-23T00:06:26.420Z,99877.33
2019-04-23T00:08:50.150Z,99877.33
2019-04-23T00:11:19.308Z,99862.63
2019-04-23T00:13:58.046Z,99867.41
2019-04-23T00:16:33.033Z,99867.41
2019-04-23T00:19:02.463Z,99865.88
2019-04-23T00:21:47.025Z,99863.51
2019-04-23T00:25:07.770Z,99855.73
2019-04-23T00:29:56.173Z,99843.33
2019-04-23T00:35:00.764Z,99835.87
2019-04-23T00:37:33.198Z,99837.45
2019-04-23T00:40:03.493Z,99835.05
2019-04-23T00:42:43.331Z,99840.66
2019-04-23T00:45:16.742Z,99840.66
2019-04-23T00:47:52.553Z,99836.53
2019-04-23T00:52:57.490Z,99834.52
2019-04-23T00:55:28.198Z,99814.90
2019-04-23T00:58:06.572Z,99814.90
2019-04-23T01:00:43.559Z,99832.38
2019-04-23T01:03:11.845Z,99824.55
2019-04-23T01:05:46.974Z,99828.38
2019-04-23T01:11:03.219Z,99826.92
2019-04-23T01:13:39.579Z,99825.26
2019-04-23T01:16:11.639Z,99817.15
2019-04-23T01:19:02.794Z,99813.54
2019-04-23T01:21:11.699Z,99813.54
2019-04-23T01:24:09.581Z,99818.70
2019-04-23T01:27:35.718Z,99809.64
2019-04-23T01:29:58.514Z,99818.31
2019-04-23T01:32:25.705Z,99812.79
2019-04-23T01:35:12.655Z,99804.20
2019-04-23T01:37:36.730Z,99799.42
2019-04-23T01:40:15.259Z,99780.64
2019-04-23T01:47:54.605Z,99772.41
2019-04-23T01:50:29.164Z,99763.86
2019-04-23T01:53:08.070Z,99763.86
2019-04-23T01:55:36.371Z,99765.35
2019-04-23T02:00:41.301Z,99759.47
2019-04-23T02:03:15.287Z,99759.47
2019-04-23T02:05:48.252Z,99746.53
2019-04-23T02:08:41.696Z,99740.75
2019-04-23T02:13:36.621Z,99752.94
2019-04-23T02:16:04.650Z,99745.56
2019-04-23T02:18:44.144Z,99745.70
2019-04-23T02:21:33.405Z,99748.28
2019-04-23T02:23:53.731Z,99748.28
2019-04-23T02:26:30.965Z,99736.23
2019-04-23T02:29:28.679Z,99732.11
2019-04-23T02:31:52.968Z,99728.34
2019-04-23T02:34:47.172Z,99724.05
2019-04-23T02:36:57.643Z,99722.77
2019-04-23T02:39:37.454Z,99712.42
2019-04-23T02:44:28.261Z,99716.55
2019-04-23T02:47:17.107Z,99710.54
2019-04-23T02:50:09.395Z,99704.79
2019-04-23T02:57:28.856Z,99710.72
2019-04-23T03:02:45.177Z,99690.67
2019-04-23T03:05:11.726Z,99700.89
2019-04-23T03:10:21.000Z,99693.27
2019-04-23T03:18:33.227Z,99694.55
2019-04-23T03:26:42.162Z,99686.08
2019-04-23T03:29:10.606Z,99686.91
2019-04-23T03:35:16.210Z,99683.48
2019-04-23T03:37:11.078Z,99679.55
2019-04-23T03:39:34.525Z,99673.97
2019-04-23T03:41:53.536Z,99675.99
2019-04-23T03:44:29.834Z,99675.99
2019-04-23T03:47:07.011Z,99680.95
2019-04-23T03:52:16.903Z,99669.81
2019-04-23T03:59:59.990Z,99667.05
2019-04-23T04:02:42.181Z,99665.05
2019-04-23T04:04:55.860Z,99663.61
2019-04-23T04:07:40.299Z,99660.31
2019-04-23T04:10:09.066Z,99664.47
2019-04-23T04:12:45.555Z,99653.52
2019-04-23T04:17:48.690Z,99652.95
2019-04-23T04:20:33.034Z,99652.95
2019-04-23T04:23:07.876Z,99652.29
2019-04-23T04:25:36.355Z,99649.84
2019-04-23T04:28:12.039Z,99647.51
2019-04-23T04:30:43.451Z,99648.69
2019-04-23T04:35:59.209Z,99646.86
2019-04-23T04:38:40.657Z,99637.41
2019-04-23T04:43:50.880Z,99636.38
2019-04-23T04:46:21.166Z,99633.27
2019-04-23T04:48:49.041Z,99631.52
2019-04-23T04:51:29.373Z,99631.52
2019-04-23T04:54:04.113Z,99627.78
2019-04-23T04:59:05.281Z,99619.87
2019-04-23T05:01:37.985Z,99618.72
2019-04-23T05:06:56.780Z,99605.51
2019-04-23T05:09:21.316Z,99601.38
2019-04-23T05:17:02.921Z,99585.45
2019-04-23T05:19:51.098Z,99590.99
2019-04-23T05:22:17.039Z,99590.23
2019-04-23T05:24:41.799Z,99595.34
2019-04-23T05:27:23.313Z,99586.48
2019-04-23T05:29:55.953Z,99583.66
2019-04-23T05:32:20.531Z,99579.84
2019-04-23T05:35:08.023Z,99573.14
2019-04-23T05:37:45.145Z,99569.01
2019-04-23T05:40:18.703Z,99564.59
2019-04-23T05:42:43.068Z,99558.72
2019-04-23T05:45:16.088Z,99563.26
2019-04-23T05:47:50.842Z,99552.20
2019-04-23T05:52:59.817Z,99551.86
2019-04-23T05:55:30.345Z,99562.69
2019-04-23T05:58:08.865Z,99578.46
2019-04-23T06:03:16.574Z,99557.23
2019-04-23T06:08:33.545Z,99545.31
2019-04-23T06:11:01.926Z,99563.91
2019-04-23T06:13:35.965Z,99563.91
2019-04-23T06:16:16.437Z,99560.66
2019-04-23T06:18:44.353Z,99570.09
2019-04-23T06:21:15.685Z,99563.02
2019-04-23T06:23:50.127Z,99568.78
2019-04-23T06:26:38.001Z,99564.86
2019-04-23T06:29:10.271Z,99562.39
2019-04-23T06:31:38.309Z,99558.95
2019-04-23T06:34:12.298Z,99545.91
2019-04-23T06:36:38.773Z,99554.97
2019-04-23T06:39:33.161Z,99557.30
2019-04-23T06:41:50.125Z,99555.53
2019-04-23T06:54:56.452Z,99538.22
2019-04-23T06:59:56.573Z,99547.01
2019-04-23T07:02:32.302Z,99540.02
2019-04-23T07:10:11.173Z,99515.27
2019-04-23T07:15:34.987Z,99527.44
2019-04-23T07:17:48.087Z,99529.53
2019-04-23T07:20:28.599Z,99526.70
2019-04-23T07:23:08.350Z,99526.70
2019-04-23T07:25:34.331Z,99514.08
2019-04-23T07:28:14.852Z,99509.02
2019-04-23T07:30:52.414Z,99518.89
2019-04-23T07:33:18.574Z,99510.30
2019-04-23T07:35:51.830Z,99499.05
2019-04-23T07:44:57.944Z,99492.94
2019-04-23T07:47:40.089Z,99469.68
2019-04-23T07:53:03.540Z,99473.76
2019-04-23T07:55:34.707Z,99483.84
2019-04-23T07:58:10.595Z,99483.84
2019-04-23T08:03:17.046Z,99482.70
2019-04-23T08:05:56.581Z,99482.70
2019-04-23T08:08:18.218Z,99486.31
2019-04-23T08:11:33.210Z,99469.05
2019-04-23T08:13:53.403Z,99481.28
2019-04-23T08:16:29.451Z,99460.61
2019-04-23T08:18:54.409Z,99460.61
2019-04-23T08:21:29.081Z,99469.09
2019-04-23T08:24:11.932Z,99457.06
2019-04-23T08:29:30.340Z,99459.37
2019-04-23T08:34:56.225Z,99448.27
2019-04-23T08:37:27.348Z,99448.27
2019-04-23T08:40:08.118Z,99444.15
2019-04-23T08:42:36.671Z,99422.00
2019-04-23T08:45:21.727Z,99426.27
2019-04-23T08:50:57.896Z,99421.63
2019-04-23T08:56:23.832Z,99420.69
2019-04-23T08:58:55.724Z,99418.91
2019-04-23T09:01:17.141Z,99418.91
2019-04-23T09:03:47.888Z,99421.66
2019-04-23T09:06:22.122Z,99411.58
2019-04-23T09:08:56.989Z,99416.83
2019-04-23T09:14:00.933Z,99421.25
2019-04-23T09:16:42.436Z,99403.53
2019-04-23T09:19:25.801Z,99407.22
2019-04-23T09:21:49.702Z,99407.22
2019-04-23T09:24:24.223Z,99402.95
2019-04-23T09:26:58.660Z,99398.24
2019-04-23T09:29:44.111Z,99392.39
2019-04-23T09:32:21.763Z,99402.96
2019-04-23T09:34:57.038Z,99399.70
2019-04-23T09:37:49.237Z,99393.00
2019-04-23T09:40:31.598Z,99395.22
2019-04-23T09:43:14.229Z,99385.58
2019-04-23T09:46:06.383Z,99376.87
2019-04-23T09:48:44.217Z,99379.41
2019-04-23T09:51:07.806Z,99377.22
2019-04-23T09:53:46.533Z,99377.22
2019-04-23T09:56:23.549Z,99360.45
2019-04-23T09:58:52.535Z,99371.58
2019-04-23T10:03:50.875Z,99362.44
2019-04-23T10:06:18.962Z,99355.55
2019-04-23T10:08:51.996Z,99355.55
2019-04-23T10:11:22.034Z,99359.20
2019-04-23T10:13:56.260Z,99345.37
2019-04-23T10:16:32.462Z,99340.87
2019-04-23T10:19:01.890Z,99340.87
2019-04-23T10:21:35.335Z,99346.44
2019-04-23T10:24:09.556Z,99349.36
2019-04-23T10:26:43.817Z,99335.23
2019-04-23T10:29:20.507Z,99337.23
2019-04-23T10:31:53.578Z,99335.02
2019-04-23T10:34:27.410Z,99334.17
2019-04-23T10:37:01.723Z,99334.51
2019-04-23T10:39:37.849Z,99331.25
2019-04-23T10:42:09.967Z,99335.43
2019-04-23T10:44:52.513Z,99348.52
2019-04-23T10:48:35.355Z,99339.73
2019-04-23T10:51:08.356Z,99330.31
2019-04-23T10:54:02.808Z,99335.12
2019-04-23T10:56:27.153Z,99326.30
2019-04-23T10:59:01.860Z,99324.01
2019-04-23T11:01:36.526Z,99320.43
2019-04-23T11:04:38.492Z,99320.43
2019-04-23T11:06:45.461Z,99329.17
2019-04-23T11:09:34.784Z,99346.45
2019-04-23T11:12:12.807Z,99346.45
2019-04-23T11:19:53.852Z,99315.42
2019-04-23T11:22:37.679Z,99329.57
2019-04-23T11:24:59.142Z,99329.57
2019-04-23T11:27:28.018Z,99311.34
2019-04-23T11:38:15.944Z,99320.57
2019-04-23T11:40:18.201Z,99322.53
2019-04-23T11:42:59.613Z,99316.58
2019-04-23T11:45:32.283Z,99316.58
2019-04-23T11:51:07.447Z,99304.33
2019-04-23T11:53:07.286Z,99304.33
2019-04-23T11:58:29.119Z,99310.70
2019-04-23T12:01:38.172Z,99297.19
2019-04-23T12:07:00.089Z,99291.11
2019-04-23T12:09:48.820Z,99304.23
2019-04-23T12:14:51.665Z,99296.45
2019-04-23T12:20:02.950Z,99299.48
2019-04-23T12:27:59.280Z,99306.91
2019-04-23T12:30:25.317Z,99289.50
2019-04-23T12:35:27.800Z,99294.42
2019-04-23T12:38:17.503Z,99275.58
2019-04-23T12:40:44.337Z,99275.58
2019-04-23T12:43:18.987Z,99283.75
2019-04-23T12:48:44.701Z,99273.69
2019-04-23T12:51:26.699Z,99273.05
2019-04-23T12:53:34.679Z,99273.05
2019-04-23T12:56:16.962Z,99268.73
2019-04-23T12:58:38.209Z,99273.75
2019-04-23T13:01:24.427Z,99270.19
2019-04-23T13:03:56.010Z,99271.16
2019-04-23T13:06:28.995Z,99270.92
2019-04-23T13:09:01.453Z,99271.65
2019-04-23T13:11:34.532Z,99271.65
2019-04-23T13:14:17.406Z,99257.02
2019-04-23T13:16:54.090Z,99257.02
2019-04-23T13:19:33.910Z,99257.39
2019-04-23T13:25:01.908Z,99263.47
2019-04-23T13:27:50.256Z,99258.02
2019-04-23T13:30:17.182Z,99248.63
2019-04-23T13:32:50.283Z,99243.17
2019-04-23T13:35:38.260Z,99266.73
2019-04-23T13:40:32.157Z,99246.50
2019-04-23T13:43:02.338Z,99246.50
2019-04-23T13:55:47.131Z,99241.48
2019-04-23T14:03:41.207Z,99229.74
2019-04-23T14:13:56.259Z,99224.47
2019-04-23T14:16:34.427Z,99224.47
2019-04-23T14:19:04.449Z,99234.77
2019-04-23T14:21:51.843Z,99231.30
2019-04-23T14:24:19.818Z,99231.30
2019-04-23T14:26:50.616Z,99225.27
2019-04-23T14:29:21.092Z,99220.27
2019-04-23T14:32:05.023Z,99237.84
2019-04-23T14:34:24.977Z,99224.61
2019-04-23T14:37:10.064Z,99221.38
2019-04-23T14:39:40.781Z,99221.38
2019-04-23T14:42:21.477Z,99217.20
2019-04-23T14:45:02.678Z,99220.67
2019-04-23T14:47:31.087Z,99215.67
2019-04-23T14:50:26.671Z,99215.50
2019-04-23T14:52:50.247Z,99208.42
2019-04-23T14:55:40.145Z,99204.00
2019-04-23T14:58:00.371Z,99206.89
2019-04-23T15:00:31.543Z,99216.88
2019-04-23T15:03:01.539Z,99213.20
2019-04-23T15:05:33.841Z,99218.75
2019-04-23T15:08:03.942Z,99203.00
2019-04-23T15:10:41.623Z,99193.28
2019-04-23T15:13:21.276Z,99192.20
2019-04-23T15:15:55.611Z,99192.20
2019-04-23T15:18:46.734Z,99199.46
2019-04-23T15:28:32.725Z,99204.65
2019-04-23T15:31:34.919Z,99204.65
2019-04-23T15:34:11.110Z,99190.25
2019-04-23T15:37:00.984Z,99191.73
2019-04-23T15:39:16.902Z,99190.81
2019-04-23T15:41:59.297Z,99190.81
2019-04-23T15:44:16.254Z,99183.08
2019-04-23T15:52:04.035Z,99191.52
2019-04-23T15:54:43.511Z,99173.97
2019-04-23T15:57:45.090Z,99186.91
2019-04-23T16:01:51.935Z,99184.42
2019-04-23T16:04:24.176Z,99177.52
2019-04-23T16:06:56.885Z,99188.09
2019-04-23T16:10:05.869Z,99177.82
2019-04-23T16:12:31.607Z,99183.10
2019-04-23T16:15:11.455Z,99183.98
2019-04-23T16:17:42.203Z,99186.00
2019-04-23T16:20:33.393Z,99181.38
2019-04-23T16:22:52.969Z,99181.08
2019-04-23T16:25:28.006Z,99175.65
2019-04-23T16:28:09.317Z,99170.59
2019-04-23T16:30:41.849Z,99170.59
2019-04-23T16:33:11.293Z,99193.98
2019-04-23T16:35:58.623Z,99183.97
2019-04-23T16:41:05.534Z,99188.05
2019-04-23T16:43:42.438Z,99191.41
2019-04-23T16:46:13.081Z,99192.67
2019-04-23T16:49:02.980Z,99173.97
2019-04-23T16:51:24.642Z,99173.97
2019-04-23T16:54:01.705Z,99186.89
2019-04-23T16:56:41.951Z,99195.34
2019-04-23T16:59:13.831Z,99195.34
2019-04-23T17:01:46.358Z,99190.25
2019-04-23T17:06:52.364Z,99192.90
2019-04-23T17:09:37.350Z,99211.50
2019-04-23T17:12:07.694Z,99208.48
2019-04-23T17:14:32.241Z,99197.84
2019-04-23T17:17:04.792Z,99203.77
2019-04-23T17:19:47.800Z,99202.34
2019-04-23T17:22:33.871Z,99207.23
2019-04-23T17:24:59.334Z,99207.23
2019-04-23T17:27:28.142Z,99206.98
2019-04-23T17:30:06.804Z,99206.98
2019-04-23T17:32:38.497Z,99206.20
2019-04-23T17:36:00.953Z,99212.95
2019-04-23T17:38:00.697Z,99208.34
2019-04-23T17:40:30.876Z,99215.78
2019-04-23T17:43:05.995Z,99215.78
2019-04-23T17:45:46.946Z,99229.85
2019-04-23T17:48:27.204Z,99219.69
2019-04-23T17:51:19.794Z,99219.69
2019-04-23T17:54:06.555Z,99210.05
2019-04-23T17:56:27.248Z,99210.05
2019-04-23T17:58:52.309Z,99228.30
2019-04-23T18:01:29.327Z,99234.39
2019-04-23T18:06:42.936Z,99235.00
2019-04-23T18:09:14.307Z,99235.20
2019-04-23T18:11:44.934Z,99233.21
2019-04-23T18:14:14.828Z,99241.84
2019-04-23T18:19:28.227Z,99239.64
2019-04-23T18:25:06.170Z,99232.09
2019-04-23T18:35:33.923Z,99244.98
2019-04-23T18:38:18.683Z,99248.54
2019-04-23T18:43:26.876Z,99247.08
2019-04-23T18:58:54.745Z,99258.75
2019-04-23T19:01:19.883Z,99264.73
2019-04-23T19:06:38.145Z,99272.38
2019-04-23T19:09:23.883Z,99271.06
2019-04-23T19:14:56.091Z,99276.66
2019-04-23T19:17:43.010Z,99272.57
2019-04-23T19:19:55.621Z,99273.92
2019-04-23T19:22:37.379Z,99273.41
2019-04-23T19:25:07.167Z,99273.20
2019-04-23T19:27:38.792Z,99273.20
2019-04-23T19:30:38.513Z,99270.08
2019-04-23T19:33:22.297Z,99269.02
2019-04-23T19:36:05.000Z,99271.24
2019-04-23T19:38:26.504Z,99269.55
2019-04-23T19:40:55.291Z,99266.30
2019-04-23T19:43:32.840Z,99276.77
2019-04-23T19:46:16.120Z,99258.77
2019-04-23T19:48:54.436Z,99261.78
2019-04-23T19:54:10.929Z,99267.33
2019-04-23T19:56:29.053Z,99270.28
2019-04-23T19:58:54.450Z,99270.91
2019-04-23T20:01:29.516Z,99275.40
2019-04-23T20:07:00.484Z,99270.72
2019-04-23T20:12:38.674Z,99275.83
2019-04-23T20:14:58.168Z,99275.83
2019-04-23T20:17:53.995Z,99276.66
2019-04-23T20:20:09.074Z,99272.91
2019-04-23T20:22:52.033Z,99269.35
2019-04-23T20:31:05.417Z,99260.98
2019-04-23T20:32:09.066Z,99260.98
2019-04-23T20:33:59.156Z,99257.43
2019-04-23T20:36:25.823Z,99264.63
2019-04-23T20:41:43.301Z,99261.31
2019-04-23T20:44:14.153Z,99265.27
2019-04-23T20:46:42.690Z,99257.95
2019-04-23T20:49:23.364Z,99257.95
2019-04-23T20:51:50.149Z,99261.91
2019-04-23T20:54:37.101Z,99260.25
2019-04-23T20:57:22.855Z,99258.23
2019-04-23T21:03:07.919Z,99258.26
2019-04-23T21:05:21.717Z,99255.87
2019-04-23T21:07:54.433Z,99262.67
2019-04-23T21:15:27.986Z,99263.70
2019-04-23T21:18:08.246Z,99258.16
2019-04-23T21:20:36.583Z,99255.77
2019-04-23T21:25:44.967Z,99261.63
2019-04-23T21:28:29.376Z,99258.39
2019-04-23T21:31:04.918Z,99258.39
2019-04-23T21:36:31.581Z,99267.61
2019-04-23T21:39:34.477Z,99262.66
2019-04-23T21:42:35.709Z,99257.84
2019-04-23T21:47:38.551Z,99253.47
2019-04-23T21:50:10.720Z,99243.62
2019-04-23T21:52:44.998Z,99251.27
2019-04-23T21:55:14.745Z,99251.27
2019-04-23T22:00:25.910Z,99252.85
2019-04-23T22:03:01.247Z,99248.34
2019-04-23T22:05:39.880Z,99255.78
2019-04-23T22:08:03.231Z,99251.70
2019-04-23T22:10:47.231Z,99255.48
2019-04-23T22:16:01.717Z,99245.75
2019-04-23T22:18:26.906Z,99243.42
2019-04-23T22:20:59.534Z,99241.04
2019-04-23T22:23:41.892Z,99253.58
2019-04-23T22:28:48.943Z,99248.26
2019-04-23T22:33:54.920Z,99248.47
2019-04-23T22:36:22.920Z,99249.40
2019-04-23T22:38:59.577Z,99249.59
2019-04-23T22:41:36.157Z,99237.67
2019-04-23T22:46:56.200Z,99257.89
2019-04-23T22:49:22.905Z,99251.58
2019-04-23T22:51:55.385Z,99245.11
2019-04-23T22:54:38.583Z,99246.47
2019-04-23T22:56:57.952Z,99248.36
2019-04-23T22:59:48.531Z,99248.36
2019-04-23T23:02:26.960Z,99244.18
2019-04-23T23:05:07.285Z,99247.29
2019-04-23T23:07:38.858Z,99241.23
2019-04-23T23:12:52.693Z,99223.66
2019-04-23T23:15:14.869Z,99224.81
2019-04-23T23:18:00.265Z,99224.81
2019-04-23T23:20:30.266Z,99256.81
2019-04-23T23:23:06.177Z,99256.81
2019-04-23T23:25:33.497Z,99251.69
2019-04-23T23:28:20.059Z,99254.30
2019-04-23T23:30:50.063Z,99247.83
2019-04-23T23:38:28.891Z,99254.94
2019-04-23T23:41:03.667Z,99256.62
2019-04-23T23:43:30.268Z,99245.95
2019-04-23T23:46:14.705Z,99245.95
2019-04-23T23:48:48.266Z,99245.83
2019-04-23T23:51:29.119Z,99267.30
2019-04-23T23:54:05.054Z,99249.70
2019-04-23T23:56:30.205Z,99266.77
